createdAt,value
2023-01-02T00:00:25.452Z,10.00
2023-01-02T00:02:52.353Z,9.90
2023-01-02T00:05:19.266Z,9.90
2023-01-02T00:07:46.027Z,10.00
2023-01-02T00:10:12.790Z,10.10
2023-01-02T00:12:39.669Z,10.10
2023-01-02T00:15:06.902Z,10.00
2023-01-02T00:17:33.858Z,10.00
2023-01-02T00:20:00.688Z,10.00
2023-01-02T00:22:27.451Z,10.10
2023-01-02T00:24:54.199Z,10.10
2023-01-02T00:27:20.982Z,10.10
2023-01-02T00:29:47.867Z,10.10
2023-01-02T00:32:15.705Z,9.90
2023-01-02T00:34:45.139Z,9.90
2023-01-02T00:37:12.202Z,9.80
2023-01-02T00:39:39.016Z,9.80
2023-01-02T00:42:05.834Z,9.60
2023-01-02T00:44:32.821Z,9.70
2023-01-02T00:46:59.695Z,9.40
2023-01-02T00:49:26.515Z,9.40
2023-01-02T00:51:53.628Z,9.30
2023-01-02T00:54:20.473Z,9.30
2023-01-02T00:56:47.234Z,9.50
2023-01-02T00:59:13.962Z,9.30
2023-01-02T01:01:41.124Z,9.20
2023-01-02T01:04:07.909Z,9.30
2023-01-02T01:06:34.724Z,9.40
2023-01-02T01:09:01.587Z,9.50
2023-01-02T01:11:28.497Z,9.50
2023-01-02T01:13:55.255Z,9.60
2023-01-02T01:16:22.086Z,9.60
2023-01-02T01:18:48.973Z,9.60
2023-01-02T01:21:20.700Z,9.50
2023-01-02T01:23:52.040Z,9.50
2023-01-02T01:26:21.015Z,9.50
2023-01-02T01:28:48.096Z,9.50
2023-01-02T01:31:16.675Z,9.50
2023-01-02T01:33:44.534Z,9.40
2023-01-02T01:36:16.735Z,9.40
2023-01-02T01:38:44.131Z,9.30
2023-01-02T01:41:13.627Z,9.30
2023-01-02T01:43:50.338Z,9.30
2023-01-02T01:46:33.615Z,9.30
2023-01-02T01:49:05.674Z,9.20
2023-01-02T01:51:35.990Z,9.20
2023-01-02T01:54:17.496Z,9.20
2023-01-02T01:56:51.096Z,9.20
2023-01-02T01:59:19.525Z,9.10
2023-01-02T02:01:48.865Z,9.10
2023-01-02T02:04:18.076Z,9.00
2023-01-02T02:06:45.656Z,9.00
2023-01-02T02:09:29.958Z,8.60
2023-01-02T02:11:56.775Z,8.60
2023-01-02T02:14:23.536Z,8.60
2023-01-02T02:17:07.369Z,8.50
2023-01-02T02:19:36.828Z,8.50
2023-01-02T02:22:22.479Z,8.50
2023-01-02T02:25:30.185Z,8.50
2023-01-02T02:28:12.163Z,8.40
2023-01-02T02:30:45.894Z,8.40
2023-01-02T02:33:13.031Z,8.20
2023-01-02T02:35:52.010Z,8.00
2023-01-02T02:38:40.224Z,8.10
2023-01-02T02:41:33.049Z,8.10
2023-01-02T02:44:34.141Z,8.00
2023-01-02T02:47:04.771Z,7.90
2023-01-02T02:49:42.254Z,7.70
2023-01-02T02:52:30.009Z,7.70
2023-01-02T02:55:14.861Z,7.70
2023-01-02T02:57:44.597Z,7.80
2023-01-02T03:00:15.344Z,7.90
2023-01-02T03:02:42.271Z,7.80
2023-01-02T03:05:14.728Z,7.70
2023-01-02T03:08:00.230Z,7.40
2023-01-02T03:10:51.925Z,6.00
2023-01-02T03:13:28.453Z,7.50
2023-01-02T03:16:06.424Z,7.30
2023-01-02T03:19:12.096Z,7.60
2023-01-02T03:21:43.643Z,7.70
2023-01-02T03:24:14.278Z,7.70
2023-01-02T03:26:45.047Z,7.50
2023-01-02T03:29:17.658Z,7.50
2023-01-02T03:31:49.370Z,7.60
2023-01-02T03:34:25.408Z,7.70
2023-01-02T03:36:58.471Z,7.50
2023-01-02T03:39:29.119Z,7.50
2023-01-02T03:42:03.379Z,7.70
2023-01-02T03:44:49.209Z,7.70
2023-01-02T03:47:32.943Z,7.60
2023-01-02T03:50:06.180Z,7.70
2023-01-02T03:52:33.151Z,7.40
2023-01-02T03:55:00.478Z,7.70
2023-01-02T03:57:57.077Z,7.50
2023-01-02T04:00:41.189Z,7.60
2023-01-02T04:03:16.628Z,8.60
2023-01-02T04:05:52.872Z,7.70
2023-01-02T04:09:04.169Z,7.70
2023-01-02T04:11:33.971Z,7.70
2023-01-02T04:14:07.511Z,7.80
2023-01-02T04:16:37.026Z,7.70
2023-01-02T04:19:15.604Z,7.60
2023-01-02T04:21:44.701Z,7.70
2023-01-02T04:24:16.098Z,7.70
2023-01-02T04:26:47.310Z,7.70
2023-01-02T04:29:14.490Z,7.60
2023-01-02T04:31:50.440Z,7.80
2023-01-02T04:34:19.169Z,7.70
2023-01-02T04:36:46.076Z,7.80
2023-01-02T04:39:12.993Z,7.80
2023-01-02T04:41:40.574Z,7.70
2023-01-02T04:44:07.485Z,7.80
2023-01-02T04:46:35.372Z,7.70
2023-01-02T04:49:02.162Z,7.70
2023-01-02T04:51:29.043Z,7.70
2023-01-02T04:53:55.982Z,7.70
2023-01-02T04:56:23.163Z,7.80
2023-01-02T04:58:50.541Z,7.60
2023-01-02T05:01:19.428Z,7.60
2023-01-02T05:03:48.629Z,7.70
2023-01-02T05:06:16.047Z,7.80
2023-01-02T05:08:42.972Z,7.90
2023-01-02T05:11:13.116Z,7.70
2023-01-02T05:13:39.920Z,8.60
2023-01-02T05:16:07.527Z,7.60
2023-01-02T05:18:34.759Z,7.60
2023-01-02T05:21:07.539Z,7.70
2023-01-02T05:23:50.098Z,7.70
2023-01-02T05:26:17.972Z,7.70
2023-01-02T05:28:45.038Z,7.60
2023-01-02T05:31:12.636Z,7.70
2023-01-02T05:33:39.543Z,7.80
2023-01-02T05:36:08.076Z,7.80
2023-01-02T05:38:36.116Z,7.90
2023-01-02T05:41:07.861Z,8.00
2023-01-02T05:43:36.489Z,7.70
2023-01-02T05:46:16.113Z,7.80
2023-01-02T05:48:43.639Z,7.60
2023-01-02T05:51:12.392Z,7.60
2023-01-02T05:53:39.364Z,7.70
2023-01-02T05:56:07.716Z,8.00
2023-01-02T05:58:40.394Z,8.00
2023-01-02T06:01:12.473Z,8.10
2023-01-02T06:03:39.633Z,8.10
2023-01-02T06:06:11.064Z,8.10
2023-01-02T06:08:38.880Z,8.40
2023-01-02T06:11:06.711Z,8.40
2023-01-02T06:13:35.973Z,8.40
2023-01-02T06:16:04.965Z,8.40
2023-01-02T06:18:33.498Z,8.40
2023-01-02T06:21:05.990Z,8.30
2023-01-02T06:23:33.126Z,8.40
2023-01-02T06:26:14.633Z,8.50
2023-01-02T06:28:41.899Z,8.40
2023-01-02T06:31:11.404Z,8.30
2023-01-02T06:33:39.052Z,8.30
2023-01-02T06:36:08.620Z,8.40
2023-01-02T06:38:36.272Z,8.30
2023-01-02T06:41:04.509Z,8.30
2023-01-02T06:43:31.906Z,8.10
2023-01-02T06:46:00.165Z,8.30
2023-01-02T06:48:27.817Z,7.90
2023-01-02T06:50:54.858Z,7.90
2023-01-02T06:53:21.641Z,7.90
2023-01-02T06:55:54.107Z,8.10
2023-01-02T06:58:21.346Z,7.90
2023-01-02T07:00:49.461Z,8.00
2023-01-02T07:03:17.313Z,8.00
2023-01-02T07:05:44.697Z,8.10
2023-01-02T07:08:12.339Z,8.10
2023-01-02T07:10:39.217Z,8.20
2023-01-02T07:13:06.072Z,8.30
2023-01-02T07:15:33.597Z,8.30
2023-01-02T07:18:00.600Z,8.10
2023-01-02T07:20:27.410Z,8.00
2023-01-02T07:22:54.651Z,8.20
2023-01-02T07:25:22.259Z,8.20
2023-01-02T07:27:49.028Z,7.80
2023-01-02T07:30:16.294Z,7.90
2023-01-02T07:32:43.429Z,7.80
2023-01-02T07:35:11.022Z,7.60
2023-01-02T07:37:38.155Z,7.60
2023-01-02T07:40:05.687Z,7.50
2023-01-02T07:42:32.464Z,7.20
2023-01-02T07:44:59.224Z,7.40
2023-01-02T07:47:25.958Z,7.30
2023-01-02T07:49:52.805Z,7.30
2023-01-02T07:52:19.568Z,7.40
2023-01-02T07:54:46.421Z,7.40
2023-01-02T07:57:13.148Z,7.20
2023-01-02T07:59:39.856Z,7.20
2023-01-02T08:02:06.737Z,7.10
2023-01-02T08:04:33.564Z,6.90
2023-01-02T08:07:00.386Z,6.80
2023-01-02T08:09:27.162Z,6.80
2023-01-02T08:11:54.035Z,6.70
2023-01-02T08:14:23.818Z,6.70
2023-01-02T08:16:51.063Z,6.70
2023-01-02T08:19:17.901Z,6.70
2023-01-02T08:21:44.863Z,6.50
2023-01-02T08:24:11.675Z,6.50
2023-01-02T08:26:38.445Z,6.70
2023-01-02T08:29:05.797Z,6.80
2023-01-02T08:31:32.643Z,6.90
2023-01-02T08:33:59.414Z,6.90
2023-01-02T08:36:26.696Z,7.10
2023-01-02T08:38:53.427Z,7.10
2023-01-02T08:41:37.978Z,7.10
2023-01-02T08:44:05.709Z,7.30
2023-01-02T08:46:38.542Z,7.20
2023-01-02T08:49:09.337Z,7.00
2023-01-02T08:51:36.067Z,6.90
2023-01-02T08:54:02.839Z,6.50
2023-01-02T08:56:31.764Z,6.40
2023-01-02T08:59:02.919Z,6.40
2023-01-02T09:01:31.370Z,6.40
2023-01-02T09:03:59.203Z,6.30
2023-01-02T09:06:28.320Z,6.40
2023-01-02T09:08:57.851Z,6.40
2023-01-02T09:11:34.579Z,6.40
2023-01-02T09:14:01.831Z,6.40
2023-01-02T09:16:29.067Z,6.30
2023-01-02T09:18:58.114Z,6.50
2023-01-02T09:21:25.229Z,6.70
2023-01-02T09:23:52.157Z,6.80
2023-01-02T09:26:19.279Z,6.90
2023-01-02T09:28:46.860Z,6.90
2023-01-02T09:31:16.685Z,6.90
2023-01-02T09:33:44.922Z,6.80
2023-01-02T09:36:13.784Z,6.70
2023-01-02T09:38:41.043Z,6.80
2023-01-02T09:41:31.463Z,6.60
2023-01-02T09:44:24.259Z,6.80
2023-01-02T09:47:12.414Z,6.90
2023-01-02T09:49:48.197Z,7.20
2023-01-02T09:52:27.203Z,7.20
2023-01-02T09:54:54.079Z,7.30
2023-01-02T09:57:23.930Z,7.30
2023-01-02T10:00:01.709Z,7.40
2023-01-02T10:03:14.725Z,7.80
2023-01-02T10:06:00.553Z,7.80
2023-01-02T10:08:49.247Z,7.90
2023-01-02T10:11:31.147Z,7.60
2023-01-02T10:16:51.337Z,7.60
2023-01-02T10:19:59.730Z,7.80
2023-01-02T10:22:42.164Z,7.90
2023-01-02T10:25:16.725Z,7.70
2023-01-02T10:27:54.587Z,7.90
2023-01-02T10:30:24.128Z,7.90
2023-01-02T10:33:04.223Z,8.00
2023-01-02T10:35:48.107Z,7.60
2023-01-02T10:38:18.233Z,7.80
2023-01-02T10:40:47.634Z,8.10
2023-01-02T10:43:15.361Z,8.00
2023-01-02T10:45:43.099Z,8.00
2023-01-02T10:48:13.398Z,7.70
2023-01-02T10:50:48.559Z,7.70
2023-01-02T10:53:37.285Z,8.00
2023-01-02T10:56:23.043Z,7.90
2023-01-02T10:58:51.224Z,7.80
2023-01-02T11:01:21.119Z,8.10
2023-01-02T11:04:09.858Z,9.10
2023-01-02T11:06:50.071Z,8.30
2023-01-02T11:09:29.527Z,8.10
2023-01-02T11:12:00.570Z,7.90
2023-01-02T11:14:32.034Z,8.00
2023-01-02T11:17:22.716Z,8.60
2023-01-02T11:19:52.662Z,8.40
2023-01-02T11:22:22.335Z,8.00
2023-01-02T11:25:05.376Z,6.50
2023-01-02T11:27:38.080Z,8.00
2023-01-02T11:30:07.395Z,8.00
2023-01-02T11:32:40.019Z,8.30
2023-01-02T11:35:50.097Z,8.10
2023-01-02T11:38:29.827Z,8.30
2023-01-02T11:41:02.434Z,8.40
2023-01-02T11:43:50.653Z,8.40
2023-01-02T11:46:29.606Z,8.20
2023-01-02T11:49:17.121Z,8.60
2023-01-02T11:51:54.005Z,8.70
2023-01-02T11:54:25.419Z,8.90
2023-01-02T11:56:53.416Z,8.50
2023-01-02T11:59:36.446Z,8.30
2023-01-02T12:02:20.972Z,8.20
2023-01-02T12:04:48.179Z,8.30
2023-01-02T12:07:43.474Z,8.50
2023-01-02T12:10:29.856Z,8.40
2023-01-02T12:13:16.803Z,8.10
2023-01-02T12:15:56.252Z,7.80
2023-01-02T12:18:29.094Z,7.90
2023-01-02T12:21:04.660Z,8.20
2023-01-02T12:23:56.560Z,9.00
2023-01-02T12:26:52.588Z,9.70
2023-01-02T12:29:46.984Z,11.10
2023-01-02T12:32:38.366Z,10.60
2023-01-02T12:35:26.754Z,9.30
2023-01-02T12:37:59.725Z,8.60
2023-01-02T12:40:52.339Z,8.20
2023-01-02T12:43:37.601Z,8.10
2023-01-02T12:46:36.528Z,8.20
2023-01-02T12:49:20.780Z,8.70
2023-01-02T12:51:55.679Z,9.70
2023-01-02T12:54:41.327Z,10.00
2023-01-02T12:57:49.385Z,11.00
2023-01-02T13:00:29.743Z,12.10
2023-01-02T13:03:30.340Z,12.00
2023-01-02T13:06:04.457Z,11.40
2023-01-02T13:08:55.532Z,11.50
2023-01-02T13:11:44.918Z,11.80
2023-01-02T13:14:21.170Z,12.60
2023-01-02T13:17:09.156Z,11.90
2023-01-02T13:19:45.942Z,12.00
2023-01-02T13:22:36.095Z,11.50
2023-01-02T13:25:04.326Z,11.50
2023-01-02T13:27:32.279Z,11.30
2023-01-02T13:30:02.472Z,11.20
2023-01-02T13:32:30.657Z,11.40
2023-01-02T13:35:05.176Z,11.70
2023-01-02T13:37:32.054Z,11.60
2023-01-02T13:40:04.219Z,10.90
2023-01-02T13:42:53.210Z,11.30
2023-01-02T13:45:24.709Z,11.80
2023-01-02T13:47:55.302Z,11.40
2023-01-02T13:50:32.655Z,11.10
2023-01-02T13:53:11.638Z,11.20
2023-01-02T13:55:41.681Z,11.10
2023-01-02T13:58:20.546Z,11.10
2023-01-02T14:00:56.363Z,11.00
2023-01-02T14:03:23.942Z,11.10
2023-01-02T14:06:06.168Z,11.40
2023-01-02T14:09:05.115Z,11.50
2023-01-02T14:11:55.310Z,12.10
2023-01-02T14:14:41.415Z,12.40
2023-01-02T14:17:33.057Z,12.60
2023-01-02T14:20:27.817Z,12.00
2023-01-02T14:23:04.170Z,11.60
2023-01-02T14:25:32.683Z,11.60
2023-01-02T14:28:05.346Z,11.60
2023-01-02T14:30:37.959Z,12.10
2023-01-02T14:33:10.603Z,12.20
2023-01-02T14:35:57.805Z,11.90
2023-01-02T14:38:27.722Z,12.10
2023-01-02T14:41:14.922Z,12.10
2023-01-02T14:43:42.525Z,12.00
2023-01-02T14:46:24.056Z,12.30
2023-01-02T14:48:55.917Z,11.90
2023-01-02T14:51:34.575Z,12.20
2023-01-02T14:54:15.645Z,12.40
2023-01-02T14:56:46.198Z,12.80
2023-01-02T14:59:28.500Z,13.30
2023-01-02T15:01:59.754Z,13.30
2023-01-02T15:04:38.974Z,13.80
2023-01-02T15:07:24.682Z,13.40
2023-01-02T15:10:02.513Z,13.20
2023-01-02T15:12:50.277Z,13.40
2023-01-02T15:15:28.157Z,13.90
2023-01-02T15:18:01.977Z,14.00
2023-01-02T15:20:33.768Z,13.40
2023-01-02T15:23:01.579Z,13.50
2023-01-02T15:25:41.865Z,13.60
2023-01-02T15:28:27.357Z,13.00
2023-01-02T15:31:11.904Z,12.80
2023-01-02T15:33:38.966Z,12.30
2023-01-02T15:36:16.341Z,12.40
2023-01-02T15:38:44.521Z,12.40
2023-01-02T15:41:19.429Z,12.00
2023-01-02T15:44:06.620Z,11.60
2023-01-02T15:46:34.692Z,11.00
2023-01-02T15:49:04.094Z,10.60
2023-01-02T15:51:39.582Z,10.40
2023-01-02T15:54:14.062Z,10.00
2023-01-02T15:56:41.393Z,9.50
2023-01-02T15:59:37.007Z,9.20
2023-01-02T16:02:04.718Z,9.10
2023-01-02T16:04:33.542Z,9.10
2023-01-02T16:07:22.419Z,8.80
2023-01-02T16:09:56.208Z,8.70
2023-01-02T16:12:24.471Z,8.80
2023-01-02T16:14:55.859Z,8.80
2023-01-02T16:17:31.604Z,8.70
2023-01-02T16:20:02.706Z,8.60
2023-01-02T16:22:48.169Z,8.50
2023-01-02T16:25:26.236Z,8.30
2023-01-02T16:27:55.366Z,8.10
2023-01-02T16:30:42.872Z,8.20
2023-01-02T16:33:25.120Z,8.30
2023-01-02T16:36:16.601Z,8.30
2023-01-02T16:38:54.900Z,8.30
2023-01-02T16:41:44.848Z,8.30
2023-01-02T16:44:17.113Z,8.20
2023-01-02T16:46:46.818Z,8.10
2023-01-02T16:49:19.386Z,8.00
2023-01-02T16:51:50.020Z,7.90
2023-01-02T16:54:19.513Z,7.90
2023-01-02T16:56:47.780Z,7.80
2023-01-02T16:59:14.587Z,7.70
2023-01-02T17:01:41.921Z,6.10
2023-01-02T17:04:14.011Z,7.30
2023-01-02T17:06:41.294Z,7.20
2023-01-02T17:09:08.244Z,7.20
2023-01-02T17:11:35.046Z,7.00
2023-01-02T17:14:02.991Z,7.00
2023-01-02T17:16:32.642Z,7.00
2023-01-02T17:19:00.879Z,6.90
2023-01-02T17:21:32.703Z,6.80
2023-01-02T17:23:59.705Z,6.70
2023-01-02T17:26:26.909Z,6.50
2023-01-02T17:28:54.839Z,6.70
2023-01-02T17:31:25.732Z,6.70
2023-01-02T17:33:53.379Z,6.70
2023-01-02T17:36:20.314Z,6.70
2023-01-02T17:38:47.317Z,6.60
2023-01-02T17:41:14.597Z,6.50
2023-01-02T17:44:01.230Z,6.60
2023-01-02T17:49:15.388Z,6.40
2023-01-02T17:51:42.377Z,6.20
2023-01-02T17:54:09.474Z,5.80
2023-01-02T17:56:36.516Z,5.50
2023-01-02T17:59:03.809Z,5.60
2023-01-02T18:01:30.736Z,5.70
2023-01-02T18:03:58.361Z,5.70
2023-01-02T18:06:25.189Z,5.70
2023-01-02T18:08:54.608Z,5.80
2023-01-02T18:11:22.821Z,5.90
2023-01-02T18:13:52.099Z,5.90
2023-01-02T18:16:23.092Z,5.90
2023-01-02T18:18:51.150Z,6.00
2023-01-02T18:21:23.360Z,6.00
2023-01-02T18:23:56.561Z,6.00
2023-01-02T18:26:25.323Z,5.90
2023-01-02T18:29:05.659Z,5.80
2023-01-02T18:31:42.449Z,5.90
2023-01-02T18:34:46.268Z,5.80
2023-01-02T18:37:21.199Z,5.80
2023-01-02T18:39:49.713Z,5.70
2023-01-02T18:42:27.156Z,5.70
2023-01-02T18:44:58.016Z,5.70
2023-01-02T18:47:36.938Z,5.40
2023-01-02T18:50:16.905Z,6.20
2023-01-02T18:52:48.953Z,4.90
2023-01-02T18:55:44.130Z,5.00
2023-01-02T18:58:37.222Z,5.10
2023-01-02T19:01:19.022Z,5.10
2023-01-02T19:03:48.516Z,5.00
2023-01-02T19:06:23.881Z,4.80
2023-01-02T19:08:50.800Z,4.70
2023-01-02T19:11:53.506Z,4.70
2023-01-02T19:14:30.797Z,4.60
2023-01-02T19:17:25.648Z,4.60
2023-01-02T19:19:55.439Z,4.60
2023-01-02T19:22:26.545Z,4.70
2023-01-02T19:24:54.400Z,4.70
2023-01-02T19:27:35.845Z,4.50
2023-01-02T19:30:24.663Z,4.40
2023-01-02T19:32:56.281Z,4.40
2023-01-02T19:35:49.120Z,4.30
2023-01-02T19:38:28.583Z,4.30
2023-01-02T19:40:56.493Z,4.40
2023-01-02T19:43:33.773Z,4.40
2023-01-02T19:46:01.996Z,4.30
2023-01-02T19:48:29.141Z,4.20
2023-01-02T19:50:59.220Z,4.10
2023-01-02T19:53:27.070Z,4.00
2023-01-02T19:55:54.154Z,4.10
2023-01-02T19:58:21.783Z,4.20
2023-01-02T20:00:48.900Z,4.20
2023-01-02T20:03:16.418Z,4.20
2023-01-02T20:05:43.459Z,4.00
2023-01-02T20:08:10.240Z,3.90
2023-01-02T20:10:37.197Z,3.80
2023-01-02T20:13:05.990Z,3.60
2023-01-02T20:15:33.113Z,3.80
2023-01-02T20:18:08.234Z,3.70
2023-01-02T20:20:36.041Z,3.70
2023-01-02T20:23:02.796Z,3.60
2023-01-02T20:25:29.745Z,3.70
2023-01-02T20:27:56.882Z,3.70
2023-01-02T20:30:25.254Z,3.70
2023-01-02T20:32:53.947Z,3.50
2023-01-02T20:35:21.033Z,3.40
2023-01-02T20:37:51.978Z,3.40
2023-01-02T20:40:18.797Z,3.30
2023-01-02T20:42:53.428Z,3.20
2023-01-02T20:45:22.146Z,3.20
2023-01-02T20:47:49.118Z,3.10
2023-01-02T20:50:16.371Z,3.00
2023-01-02T20:52:43.147Z,3.10
2023-01-02T20:55:14.499Z,3.10
2023-01-02T20:57:41.353Z,3.20
2023-01-02T21:00:11.707Z,3.30
2023-01-02T21:02:38.948Z,3.20
2023-01-02T21:05:06.375Z,3.10
2023-01-02T21:07:33.123Z,3.10
2023-01-02T21:10:01.053Z,3.00
2023-01-02T21:12:46.533Z,3.00
2023-01-02T21:15:33.767Z,3.60
2023-01-02T21:18:01.085Z,3.10
2023-01-02T21:20:28.146Z,3.10
2023-01-02T21:22:55.023Z,3.30
2023-01-02T21:25:21.785Z,2.90
2023-01-02T21:27:48.725Z,2.80
2023-01-02T21:30:15.664Z,3.70
2023-01-02T21:32:42.837Z,2.70
2023-01-02T21:35:09.895Z,2.80
2023-01-02T21:37:37.123Z,2.90
2023-01-02T21:40:05.973Z,3.10
2023-01-02T21:42:38.038Z,3.40
2023-01-02T21:45:08.838Z,3.50
2023-01-02T21:47:35.615Z,3.60
2023-01-02T21:50:03.889Z,3.90
2023-01-02T21:52:30.743Z,4.00
2023-01-02T21:54:57.566Z,3.60
2023-01-02T21:57:45.740Z,3.40
2023-01-02T22:00:23.201Z,3.20
2023-01-02T22:02:50.423Z,3.00
2023-01-02T22:05:18.733Z,3.10
2023-01-02T22:07:46.563Z,3.10
2023-01-02T22:10:14.673Z,3.60
2023-01-02T22:12:42.949Z,3.00
2023-01-02T22:15:11.897Z,3.00
2023-01-02T22:17:38.783Z,2.90
2023-01-02T22:20:05.937Z,2.60
2023-01-02T22:22:32.827Z,2.60
2023-01-02T22:25:00.050Z,2.60
2023-01-02T22:27:30.163Z,2.70
2023-01-02T22:32:46.137Z,2.90
2023-01-02T22:35:13.250Z,2.90
2023-01-02T22:37:40.082Z,2.90
2023-01-02T22:40:07.210Z,2.90
2023-01-02T22:43:03.974Z,2.80
2023-01-02T22:45:41.780Z,2.90
2023-01-02T22:48:16.700Z,2.90
2023-01-02T22:50:45.577Z,2.90
2023-01-02T22:53:25.832Z,3.00
2023-01-02T22:55:53.297Z,3.00
2023-01-02T22:58:20.767Z,2.90
2023-01-02T23:00:54.728Z,2.90
2023-01-02T23:03:21.528Z,3.60
2023-01-02T23:05:48.312Z,2.70
2023-01-02T23:08:15.104Z,2.70
2023-01-02T23:10:41.833Z,2.70
2023-01-02T23:13:08.569Z,2.80
2023-01-02T23:15:35.920Z,2.90
2023-01-02T23:18:25.898Z,2.60
2023-01-02T23:20:52.754Z,2.60
2023-01-02T23:23:19.516Z,2.70
2023-01-02T23:25:46.584Z,2.70
2023-01-02T23:28:26.030Z,2.50
2023-01-02T23:31:00.008Z,2.40
2023-01-02T23:33:26.922Z,2.30
2023-01-02T23:35:53.768Z,2.10
2023-01-02T23:38:20.636Z,2.30
2023-01-02T23:40:47.493Z,2.30
2023-01-02T23:43:14.253Z,2.40
2023-01-02T23:45:41.805Z,2.50
2023-01-02T23:48:08.666Z,2.50
2023-01-02T23:50:35.468Z,2.50
2023-01-02T23:53:02.220Z,2.50
2023-01-02T23:55:30.330Z,2.40
2023-01-02T23:57:57.100Z,2.30
